createdAt,value
2023-03-20T00:01:53.101Z,99489.75
2023-03-20T00:05:55.863Z,99495.66
2023-03-20T00:09:58.860Z,99496.75
2023-03-20T00:14:03.930Z,99493.56
2023-03-20T00:18:15.779Z,99481.41
2023-03-20T00:22:18.468Z,99482.78
2023-03-20T00:26:32.005Z,99487.84
2023-03-20T00:30:34.694Z,99481.19
2023-03-20T00:34:39.079Z,99493.69
2023-03-20T00:38:41.850Z,99494.06
2023-03-20T00:42:45.754Z,99489.38
2023-03-20T00:46:48.616Z,99494.41
2023-03-20T00:50:53.577Z,99470.81
2023-03-20T00:54:56.279Z,99491.56
2023-03-20T00:58:59.404Z,99502.34
2023-03-20T01:03:02.876Z,99514.72
2023-03-20T01:07:07.767Z,99512.75
2023-03-20T01:11:11.303Z,99516.28
2023-03-20T01:15:20.706Z,99525.31
2023-03-20T01:19:23.644Z,99509.53
2023-03-20T01:23:27.808Z,99534.63
2023-03-20T01:27:30.626Z,99537.13
2023-03-20T01:31:33.359Z,99548.75
2023-03-20T01:35:36.671Z,99545.72
2023-03-20T01:39:41.196Z,99548.66
2023-03-20T01:43:44.468Z,99549.75
2023-03-20T01:47:48.232Z,99541.88
2023-03-20T01:51:52.557Z,99551.88
2023-03-20T01:55:58.451Z,99550.56
2023-03-20T02:00:04.022Z,99555.09
2023-03-20T02:04:07.089Z,99555.75
2023-03-20T02:08:18.208Z,99551.16
2023-03-20T02:12:23.289Z,99548.50
2023-03-20T02:16:26.233Z,99547.66
2023-03-20T02:20:36.923Z,99547.94
2023-03-20T02:25:17.336Z,99542.09
2023-03-20T02:30:14.828Z,99523.72
2023-03-20T02:34:32.355Z,99531.56
2023-03-20T02:38:48.459Z,99532.19
2023-03-20T02:42:58.226Z,99519.25
2023-03-20T02:47:04.441Z,99528.88
2023-03-20T02:51:13.816Z,99517.91
2023-03-20T02:55:21.491Z,99517.47
2023-03-20T02:59:29.415Z,99510.25
2023-03-20T03:03:35.302Z,99524.84
2023-03-20T03:07:39.265Z,99533.44
2023-03-20T03:11:44.598Z,99550.44
2023-03-20T03:15:49.749Z,99544.38
2023-03-20T03:19:54.885Z,99552.28
2023-03-20T03:23:57.631Z,99538.69
2023-03-20T03:28:04.753Z,99521.84
2023-03-20T03:32:08.559Z,99530.03
2023-03-20T03:36:15.284Z,99528.31
2023-03-20T03:40:23.035Z,99531.78
2023-03-20T03:44:29.807Z,99535.28
2023-03-20T03:48:36.577Z,99542.97
2023-03-20T03:52:40.248Z,99547.47
2023-03-20T03:56:44.526Z,99549.78
2023-03-20T04:00:50.677Z,99550.28
2023-03-20T04:04:55.082Z,99551.25
2023-03-20T04:08:57.779Z,99552.75
2023-03-20T04:13:00.469Z,99541.09
2023-03-20T04:17:04.680Z,99535.19
2023-03-20T04:21:08.182Z,99539.94
2023-03-20T04:25:16.269Z,99540.41
2023-03-20T04:29:19.017Z,99546.63
2023-03-20T04:33:23.537Z,99561.09
2023-03-20T04:37:26.287Z,99553.34
2023-03-20T04:41:29.523Z,99556.78
2023-03-20T04:45:32.308Z,99564.69
2023-03-20T04:49:36.560Z,99564.31
2023-03-20T04:53:39.479Z,99572.09
2023-03-20T04:57:42.259Z,99580.22
2023-03-20T05:01:45.098Z,99581.47
2023-03-20T05:05:49.216Z,99599.25
2023-03-20T05:09:52.122Z,99603.25
2023-03-20T05:13:54.904Z,99598.66
2023-03-20T05:17:57.594Z,99610.00
2023-03-20T05:22:02.040Z,99609.34
2023-03-20T05:26:05.028Z,99603.50
2023-03-20T05:30:08.591Z,99595.22
2023-03-20T05:34:11.342Z,99593.25
2023-03-20T05:38:15.607Z,99601.50
2023-03-20T05:42:18.295Z,99618.34
2023-03-20T05:46:21.220Z,99621.41
2023-03-20T05:50:24.197Z,99624.78
2023-03-20T05:54:28.267Z,99625.75
2023-03-20T05:58:31.172Z,99611.06
2023-03-20T06:02:33.935Z,99627.16
2023-03-20T06:06:38.092Z,99627.22
2023-03-20T06:10:42.171Z,99621.66
2023-03-20T06:14:44.910Z,99615.75
2023-03-20T06:18:47.634Z,99619.69
2023-03-20T06:22:50.699Z,99617.50
2023-03-20T06:26:54.771Z,99627.78
2023-03-20T06:30:57.649Z,99626.78
2023-03-20T06:35:00.495Z,99635.25
2023-03-20T06:39:03.696Z,99639.06
2023-03-20T06:43:07.758Z,99642.44
2023-03-20T06:47:10.999Z,99648.22
2023-03-20T06:51:13.661Z,99654.94
2023-03-20T06:55:16.354Z,99651.56
2023-03-20T06:59:20.763Z,99660.25
2023-03-20T07:03:23.466Z,99661.75
2023-03-20T07:07:26.186Z,99671.38
2023-03-20T07:11:28.992Z,99655.53
2023-03-20T07:15:33.196Z,99662.47
2023-03-20T07:19:38.119Z,99669.06
2023-03-20T07:23:41.107Z,99659.63
2023-03-20T07:27:50.202Z,99665.97
2023-03-20T07:31:54.265Z,99673.00
2023-03-20T07:35:57.090Z,99670.00
2023-03-20T07:39:59.767Z,99681.88
2023-03-20T07:44:03.070Z,99691.78
2023-03-20T07:48:07.818Z,99689.16
2023-03-20T07:52:10.791Z,99671.78
2023-03-20T07:56:13.521Z,99680.69
2023-03-20T08:00:17.674Z,99695.34
2023-03-20T08:04:23.256Z,99697.75
2023-03-20T08:08:26.286Z,99698.41
2023-03-20T08:12:28.977Z,99701.94
2023-03-20T08:16:31.630Z,99702.81
2023-03-20T08:23:42.732Z,99716.06
2023-03-20T08:27:45.606Z,99721.63
2023-03-20T08:31:48.489Z,99720.13
2023-03-20T08:35:58.161Z,99731.41
2023-03-20T08:40:02.268Z,99719.66
2023-03-20T08:44:05.030Z,99723.25
2023-03-20T08:48:07.777Z,99738.97
2023-03-20T08:52:10.577Z,99741.81
2023-03-20T08:56:14.624Z,99750.16
2023-03-20T09:00:20.342Z,99738.78
2023-03-20T09:04:23.154Z,99732.91
2023-03-20T09:08:25.855Z,99730.41
2023-03-20T09:12:31.537Z,99737.69
2023-03-20T09:16:34.393Z,99748.59
2023-03-20T09:20:37.485Z,99757.28
2023-03-20T09:24:40.826Z,99768.91
2023-03-20T09:28:44.979Z,99762.34
2023-03-20T09:32:47.782Z,99764.94
2023-03-20T09:36:50.726Z,99765.97
2023-03-20T09:40:55.253Z,99772.38
2023-03-20T09:45:06.691Z,99776.31
2023-03-20T09:49:14.485Z,99778.50
2023-03-20T09:53:20.655Z,99774.25
2023-03-20T09:57:25.938Z,99765.84
2023-03-20T10:01:41.019Z,99774.16
2023-03-20T10:05:46.629Z,99772.69
2023-03-20T10:09:49.365Z,99776.28
2023-03-20T10:14:16.860Z,99771.94
2023-03-20T10:18:24.958Z,99771.38
2023-03-20T10:22:30.864Z,99775.53
2023-03-20T10:26:36.005Z,99767.00
2023-03-20T10:30:48.889Z,99767.03
2023-03-20T10:35:12.540Z,99769.53
2023-03-20T10:39:21.192Z,99769.09
2023-03-20T10:43:27.418Z,99776.09
2023-03-20T10:47:32.474Z,99768.38
2023-03-20T10:51:41.434Z,99764.38
2023-03-20T10:55:45.119Z,99760.00
2023-03-20T10:59:50.013Z,99765.41
2023-03-20T11:03:52.731Z,99755.97
2023-03-20T11:08:05.448Z,99750.31
2023-03-20T11:12:18.505Z,99749.53
2023-03-20T11:16:24.643Z,99746.22
2023-03-20T11:20:32.464Z,99741.47
2023-03-20T11:24:39.032Z,99741.94
2023-03-20T11:28:42.815Z,99745.06
2023-03-20T11:32:48.012Z,99740.50
2023-03-20T11:37:09.131Z,99738.66
2023-03-20T11:41:20.241Z,99739.22
2023-03-20T11:45:23.564Z,99744.69
2023-03-20T11:49:27.702Z,99739.31
2023-03-20T11:53:32.798Z,99737.50
2023-03-20T11:57:38.401Z,99732.59
2023-03-20T12:01:44.796Z,99730.41
2023-03-20T12:05:47.884Z,99728.63
2023-03-20T12:09:53.639Z,99726.06
2023-03-20T12:14:00.503Z,99723.53
2023-03-20T12:18:04.784Z,99714.97
2023-03-20T12:22:16.094Z,99717.72
2023-03-20T12:26:22.643Z,99709.72
2023-03-20T12:30:39.483Z,99698.81
2023-03-20T12:34:44.260Z,99705.56
2023-03-20T12:38:47.196Z,99708.28
2023-03-20T12:43:00.503Z,99686.19
2023-03-20T12:47:15.468Z,99699.59
2023-03-20T12:51:20.624Z,99699.88
2023-03-20T12:55:29.703Z,99693.91
2023-03-20T12:59:39.835Z,99681.59
2023-03-20T13:03:53.096Z,99685.84
2023-03-20T13:08:07.597Z,99672.78
2023-03-20T13:12:17.092Z,99688.47
2023-03-20T13:16:25.884Z,99665.63
2023-03-20T13:20:32.192Z,99659.94
2023-03-20T13:24:39.877Z,99667.50
2023-03-20T13:28:47.873Z,99661.75
2023-03-20T13:32:56.464Z,99659.63
2023-03-20T13:37:23.096Z,99655.19
2023-03-20T13:41:26.841Z,99653.03
2023-03-20T13:45:35.188Z,99645.56
2023-03-20T13:49:39.046Z,99649.00
2023-03-20T13:53:53.353Z,99641.00
2023-03-20T13:58:16.628Z,99644.19
2023-03-20T14:02:34.515Z,99631.28
2023-03-20T14:06:52.153Z,99631.28
2023-03-20T14:11:07.245Z,99629.94
2023-03-20T14:15:13.374Z,99610.41
2023-03-20T14:19:20.810Z,99621.03
2023-03-20T14:23:34.004Z,99617.19
2023-03-20T14:27:54.729Z,99608.84
2023-03-20T14:32:05.359Z,99602.16
2023-03-20T14:36:20.754Z,99597.53
2023-03-20T14:40:25.204Z,99598.47
2023-03-20T14:44:39.666Z,99584.09
2023-03-20T14:48:45.317Z,99596.53
2023-03-20T14:52:56.014Z,99593.81
2023-03-20T14:57:09.878Z,99582.63
2023-03-20T15:01:20.028Z,99590.34
2023-03-20T15:05:25.550Z,99584.03
2023-03-20T15:09:32.156Z,99578.44
2023-03-20T15:13:35.655Z,99562.38
2023-03-20T15:17:41.497Z,99577.00
2023-03-20T15:21:48.089Z,99581.09
2023-03-20T15:25:51.750Z,99569.06
2023-03-20T15:29:56.374Z,99573.94
2023-03-20T15:34:01.302Z,99565.28
2023-03-20T15:38:06.310Z,99563.34
2023-03-20T15:42:13.964Z,99562.19
2023-03-20T15:46:18.811Z,99561.13
2023-03-20T15:50:24.068Z,99556.63
2023-03-20T15:54:27.116Z,99536.31
2023-03-20T15:58:32.031Z,99541.13
2023-03-20T16:02:36.318Z,99548.25
2023-03-20T16:06:47.228Z,99545.06
2023-03-20T16:10:50.477Z,99541.75
2023-03-20T16:14:53.336Z,99543.00
2023-03-20T16:18:58.115Z,99544.06
2023-03-20T16:23:05.828Z,99556.03
2023-03-20T16:27:09.782Z,99547.66
2023-03-20T16:31:15.660Z,99537.34
2023-03-20T16:35:20.782Z,99536.00
2023-03-20T16:39:27.402Z,99540.81
2023-03-20T16:43:32.103Z,99540.59
2023-03-20T16:47:36.177Z,99540.47
2023-03-20T16:51:38.962Z,99547.03
2023-03-20T16:55:47.136Z,99545.28
2023-03-20T16:59:51.949Z,99527.28
2023-03-20T17:03:55.875Z,99538.34
2023-03-20T17:08:06.762Z,99537.78
2023-03-20T17:12:16.257Z,99532.13
2023-03-20T17:16:21.384Z,99531.75
2023-03-20T17:20:26.284Z,99534.28
2023-03-20T17:24:28.992Z,99531.16
2023-03-20T17:28:35.971Z,99535.59
2023-03-20T17:32:38.720Z,99530.94
2023-03-20T17:36:41.458Z,99525.13
2023-03-20T17:40:44.274Z,99529.94
2023-03-20T17:44:49.528Z,99543.84
2023-03-20T17:48:52.929Z,99531.34
2023-03-20T17:52:56.158Z,99540.53
2023-03-20T17:56:58.924Z,99551.00
2023-03-20T18:01:03.901Z,99548.28
2023-03-20T18:05:07.849Z,99560.06
2023-03-20T18:09:13.430Z,99550.63
2023-03-20T18:13:18.667Z,99538.38
2023-03-20T18:17:22.913Z,99551.53
2023-03-20T18:21:25.677Z,99537.25
2023-03-20T18:25:28.473Z,99557.53
2023-03-20T18:29:31.218Z,99536.91
2023-03-20T18:33:35.372Z,99542.22
2023-03-20T18:37:38.115Z,99541.69
2023-03-20T18:41:40.788Z,99539.16
2023-03-20T18:45:43.474Z,99536.19
2023-03-20T18:49:47.542Z,99534.63
2023-03-20T18:53:50.238Z,99544.34
2023-03-20T18:57:53.038Z,99552.28
2023-03-20T19:01:55.910Z,99548.63
2023-03-20T19:06:00.373Z,99549.06
2023-03-20T19:10:03.436Z,99562.53
2023-03-20T19:14:06.116Z,99556.13
2023-03-20T19:18:12.473Z,99515.72
2023-03-20T19:22:29.069Z,99560.56
2023-03-20T19:26:33.523Z,99555.72
2023-03-20T19:30:37.124Z,99542.97
2023-03-20T19:35:31.193Z,99543.34
2023-03-20T19:39:04.987Z,99540.66
2023-03-20T19:43:08.419Z,99535.75
2023-03-20T19:47:11.572Z,99528.56
2023-03-20T19:51:16.070Z,99528.38
2023-03-20T19:55:20.400Z,99534.81
2023-03-20T19:59:23.356Z,99539.16
2023-03-20T20:03:26.989Z,99542.06
2023-03-20T20:08:09.092Z,99537.44
2023-03-20T20:11:53.882Z,99536.63
2023-03-20T20:15:57.940Z,99544.28
2023-03-20T20:20:01.357Z,99531.38
2023-03-20T20:24:04.193Z,99532.44
2023-03-20T20:28:09.900Z,99543.41
2023-03-20T20:32:12.726Z,99543.00
2023-03-20T20:40:39.185Z,99529.44
2023-03-20T20:44:43.363Z,99527.75
2023-03-20T20:48:46.064Z,99520.47
2023-03-20T20:52:49.008Z,99518.66
2023-03-20T20:56:51.771Z,99520.34
2023-03-20T21:00:57.746Z,99527.56
2023-03-20T21:05:00.696Z,99527.81
2023-03-20T21:09:03.468Z,99529.78
2023-03-20T21:13:08.257Z,99515.16
2023-03-20T21:17:12.488Z,99525.19
2023-03-20T21:21:16.024Z,99530.28
2023-03-20T21:25:28.893Z,99533.84
2023-03-20T21:29:39.832Z,99526.44
2023-03-20T21:33:44.208Z,99537.84
2023-03-20T21:38:41.856Z,99538.19
2023-03-20T21:42:09.530Z,99536.56
2023-03-20T21:46:52.492Z,99540.25
2023-03-20T21:51:15.165Z,99543.38
2023-03-20T22:00:01.186Z,99526.22
2023-03-20T22:13:21.768Z,99526.44
2023-03-20T22:35:05.098Z,99523.66
2023-03-20T22:44:17.524Z,99522.94
2023-03-20T22:47:38.818Z,99510.63
2023-03-20T22:51:57.405Z,99524.06
2023-03-20T22:56:04.122Z,99527.22
2023-03-20T23:00:10.562Z,99522.91
2023-03-20T23:04:13.660Z,99523.78
2023-03-20T23:08:16.481Z,99516.47
2023-03-20T23:12:19.320Z,99515.19
2023-03-20T23:16:23.303Z,99501.72
2023-03-20T23:20:25.807Z,99500.75
2023-03-20T23:24:28.491Z,99502.91
2023-03-20T23:28:31.202Z,99492.50
2023-03-20T23:32:38.501Z,99490.25
2023-03-20T23:36:42.263Z,99492.00
2023-03-20T23:40:49.629Z,99487.81
2023-03-20T23:44:57.470Z,99475.09
2023-03-20T23:49:05.740Z,99476.31
2023-03-20T23:53:19.493Z,99478.03
2023-03-20T23:57:22.864Z,99460.88
